createdAt,value
2022-11-07T00:02:17.818Z,66.75
2022-11-07T00:04:44.862Z,65.92
2022-11-07T00:07:11.330Z,66.75
2022-11-07T00:09:37.939Z,66.43
2022-11-07T00:12:04.610Z,66.62
2022-11-07T00:14:31.198Z,65.65
2022-11-07T00:16:57.679Z,66.58
2022-11-07T00:19:24.141Z,67.02
2022-11-07T00:21:50.636Z,65.50
2022-11-07T00:24:18.340Z,64.83
2022-11-07T00:26:46.307Z,65.95
2022-11-07T00:29:14.404Z,65.91
2022-11-07T00:31:41.107Z,64.10
2022-11-07T00:34:07.557Z,65.69
2022-11-07T00:36:34.063Z,65.26
2022-11-07T00:39:00.552Z,65.64
2022-11-07T00:41:27.745Z,68.38
2022-11-07T00:43:54.630Z,66.21
2022-11-07T00:46:21.537Z,67.28
2022-11-07T00:48:48.365Z,67.12
2022-11-07T00:51:21.411Z,66.98
2022-11-07T00:53:48.528Z,66.60
2022-11-07T00:56:18.463Z,66.55
2022-11-07T00:58:45.071Z,66.74
2022-11-07T01:01:16.780Z,66.39
2022-11-07T01:03:43.751Z,66.26
2022-11-07T01:06:10.990Z,66.44
2022-11-07T01:08:37.460Z,68.04
2022-11-07T01:11:06.768Z,68.10
2022-11-07T01:13:34.135Z,68.52
2022-11-07T01:16:00.719Z,68.16
2022-11-07T01:18:27.709Z,68.35
2022-11-07T01:20:54.167Z,68.61
2022-11-07T01:23:21.096Z,67.86
2022-11-07T01:25:47.562Z,68.03
2022-11-07T01:28:14.083Z,67.84
2022-11-07T01:30:44.847Z,68.16
2022-11-07T01:33:12.848Z,67.57
2022-11-07T01:35:40.729Z,68.04
2022-11-07T01:38:07.724Z,67.99
2022-11-07T01:40:34.456Z,68.65
2022-11-07T01:43:00.894Z,69.08
2022-11-07T01:45:29.945Z,68.77
2022-11-07T01:48:02.021Z,68.67
2022-11-07T01:50:30.364Z,68.16
2022-11-07T01:52:57.824Z,68.76
2022-11-07T01:55:34.993Z,68.91
2022-11-07T01:58:07.069Z,68.60
2022-11-07T02:00:37.019Z,68.96
2022-11-07T02:03:09.593Z,68.70
2022-11-07T02:05:46.831Z,68.23
2022-11-07T02:08:16.132Z,68.40
2022-11-07T02:10:43.967Z,68.90
2022-11-07T02:13:26.801Z,69.13
2022-11-07T02:15:53.702Z,69.74
2022-11-07T02:18:22.238Z,70.30
2022-11-07T02:20:52.150Z,70.66
2022-11-07T02:23:26.711Z,70.68
2022-11-07T02:25:54.663Z,71.03
2022-11-07T02:28:23.557Z,75.23
2022-11-07T02:30:50.066Z,74.98
2022-11-07T02:33:22.656Z,76.06
2022-11-07T02:35:53.274Z,73.47
2022-11-07T02:38:31.228Z,74.46
2022-11-07T02:41:03.548Z,73.33
2022-11-07T02:43:33.462Z,72.01
2022-11-07T02:46:05.658Z,71.73
2022-11-07T02:48:40.325Z,71.51
2022-11-07T02:51:06.795Z,71.45
2022-11-07T02:53:33.275Z,71.95
2022-11-07T02:55:59.794Z,71.25
2022-11-07T02:58:26.266Z,70.83
2022-11-07T03:00:52.790Z,70.42
2022-11-07T03:03:19.391Z,70.50
2022-11-07T03:05:45.823Z,70.33
2022-11-07T03:08:12.260Z,70.42
2022-11-07T03:10:38.700Z,69.90
2022-11-07T03:13:05.219Z,70.57
2022-11-07T03:15:31.654Z,70.27
2022-11-07T03:17:59.258Z,70.62
2022-11-07T03:20:25.796Z,70.65
2022-11-07T03:22:52.267Z,70.48
2022-11-07T03:25:18.712Z,70.29
2022-11-07T03:27:46.912Z,70.48
2022-11-07T03:30:13.470Z,70.08
2022-11-07T03:32:39.946Z,70.55
2022-11-07T03:35:07.162Z,70.63
2022-11-07T03:37:33.614Z,69.97
2022-11-07T03:40:00.099Z,70.63
2022-11-07T03:42:26.558Z,70.22
2022-11-07T03:44:53.000Z,69.90
2022-11-07T03:47:19.595Z,69.91
2022-11-07T03:49:46.089Z,69.43
2022-11-07T03:52:12.555Z,69.73
2022-11-07T03:54:39.009Z,69.49
2022-11-07T03:57:05.510Z,69.60
2022-11-07T03:59:32.005Z,70.16
2022-11-07T04:01:58.511Z,69.72
2022-11-07T04:04:24.977Z,70.26
2022-11-07T04:06:51.474Z,69.58
2022-11-07T04:09:17.947Z,69.47
2022-11-07T04:11:44.379Z,69.23
2022-11-07T04:14:30.848Z,69.26
2022-11-07T04:16:57.313Z,70.05
2022-11-07T04:19:23.749Z,69.14
2022-11-07T04:21:50.190Z,68.68
2022-11-07T04:24:16.635Z,68.24
2022-11-07T04:26:43.119Z,69.02
2022-11-07T04:29:09.578Z,68.43
2022-11-07T04:31:36.131Z,68.81
2022-11-07T04:34:02.567Z,68.93
2022-11-07T04:36:29.011Z,68.83
2022-11-07T04:38:55.458Z,68.54
2022-11-07T04:41:24.085Z,68.61
2022-11-07T04:43:51.438Z,68.03
2022-11-07T04:46:17.906Z,68.00
2022-11-07T04:48:44.571Z,67.73
2022-11-07T04:51:21.262Z,66.48
2022-11-07T04:53:47.934Z,67.05
2022-11-07T04:56:14.445Z,66.99
2022-11-07T04:58:40.935Z,66.52
2022-11-07T05:01:07.440Z,66.97
2022-11-07T05:03:38.904Z,65.67
2022-11-07T05:06:11.515Z,67.09
2022-11-07T05:08:38.015Z,67.24
2022-11-07T05:11:04.530Z,66.52
2022-11-07T05:13:30.970Z,66.19
2022-11-07T05:15:57.652Z,65.79
2022-11-07T05:18:24.147Z,66.28
2022-11-07T05:20:50.724Z,65.60
2022-11-07T05:23:17.668Z,66.19
2022-11-07T05:25:46.177Z,65.40
2022-11-07T05:28:15.525Z,66.93
2022-11-07T05:30:43.877Z,65.76
2022-11-07T05:33:12.421Z,65.54
2022-11-07T05:35:39.213Z,65.90
2022-11-07T05:38:06.061Z,65.75
2022-11-07T05:40:36.313Z,66.10
2022-11-07T05:43:05.672Z,66.73
2022-11-07T05:45:33.176Z,69.56
2022-11-07T05:48:03.079Z,69.25
2022-11-07T05:50:30.221Z,68.46
2022-11-07T05:52:57.119Z,68.19
2022-11-07T05:55:25.078Z,67.94
2022-11-07T05:57:52.223Z,68.35
2022-11-07T06:00:19.521Z,68.05
2022-11-07T06:02:54.551Z,68.25
2022-11-07T06:05:24.132Z,68.22
2022-11-07T06:07:51.067Z,68.12
2022-11-07T06:10:18.305Z,68.80
2022-11-07T06:12:44.777Z,68.66
2022-11-07T06:15:11.674Z,68.68
2022-11-07T06:17:39.079Z,69.23
2022-11-07T06:20:06.183Z,68.55
2022-11-07T06:22:32.855Z,68.54
2022-11-07T06:24:59.387Z,68.78
2022-11-07T06:27:25.842Z,69.20
2022-11-07T06:29:52.286Z,69.27
2022-11-07T06:32:18.771Z,68.87
2022-11-07T06:34:45.220Z,68.88
2022-11-07T06:37:11.666Z,68.97
2022-11-07T06:39:38.170Z,69.25
2022-11-07T06:42:04.713Z,69.40
2022-11-07T06:44:31.175Z,68.90
2022-11-07T06:46:57.645Z,69.65
2022-11-07T06:49:24.124Z,69.37
2022-11-07T06:51:53.242Z,68.94
2022-11-07T06:54:19.807Z,68.93
2022-11-07T06:56:46.258Z,69.27
2022-11-07T06:59:12.725Z,69.47
2022-11-07T07:01:39.324Z,68.91
2022-11-07T07:04:05.877Z,68.74
2022-11-07T07:06:32.364Z,68.57
2022-11-07T07:08:58.855Z,68.37
2022-11-07T07:11:25.300Z,68.56
2022-11-07T07:13:51.754Z,68.52
2022-11-07T07:16:18.238Z,67.95
2022-11-07T07:18:44.735Z,68.48
2022-11-07T07:21:13.363Z,68.88
2022-11-07T07:23:40.685Z,69.56
2022-11-07T07:26:15.091Z,68.98
2022-11-07T07:28:42.683Z,67.97
2022-11-07T07:31:30.301Z,67.33
2022-11-07T07:33:57.042Z,67.54
2022-11-07T07:36:23.816Z,67.20
2022-11-07T07:38:51.452Z,67.02
2022-11-07T07:41:18.949Z,66.26
2022-11-07T07:43:45.616Z,67.26
2022-11-07T07:46:19.602Z,67.09
2022-11-07T07:48:46.076Z,68.81
2022-11-07T07:51:12.537Z,68.81
2022-11-07T07:53:39.041Z,67.86
2022-11-07T07:56:06.003Z,67.55
2022-11-07T07:58:32.960Z,66.24
2022-11-07T08:00:59.621Z,66.32
2022-11-07T08:03:32.154Z,65.57
2022-11-07T08:06:06.550Z,64.34
2022-11-07T08:08:37.927Z,63.52
2022-11-07T08:11:08.328Z,63.41
2022-11-07T08:13:34.954Z,62.49
2022-11-07T08:16:04.717Z,62.15
2022-11-07T08:18:31.196Z,62.12
2022-11-07T08:20:57.667Z,61.14
2022-11-07T08:23:24.756Z,60.39
2022-11-07T08:25:56.506Z,60.32
2022-11-07T08:28:26.527Z,59.63
2022-11-07T08:31:05.868Z,58.65
2022-11-07T08:33:33.159Z,57.48
2022-11-07T08:36:01.827Z,58.08
2022-11-07T08:38:30.714Z,58.03
2022-11-07T08:40:58.469Z,57.52
2022-11-07T08:43:25.170Z,57.19
2022-11-07T08:45:53.470Z,56.59
2022-11-07T08:48:19.922Z,56.44
2022-11-07T08:50:51.374Z,56.40
2022-11-07T08:53:18.031Z,56.56
2022-11-07T08:55:44.729Z,56.83
2022-11-07T08:58:11.202Z,56.79
2022-11-07T09:00:37.705Z,56.13
2022-11-07T09:03:38.714Z,56.56
2022-11-07T09:05:52.837Z,55.85
2022-11-07T09:08:19.456Z,55.51
2022-11-07T09:10:45.915Z,54.38
2022-11-07T09:13:12.504Z,53.97
2022-11-07T09:15:39.008Z,52.86
2022-11-07T09:18:06.940Z,52.73
2022-11-07T09:20:34.288Z,51.79
2022-11-07T09:23:00.781Z,51.91
2022-11-07T09:25:28.028Z,51.75
2022-11-07T09:27:54.514Z,50.59
2022-11-07T09:30:21.695Z,50.31
2022-11-07T09:32:48.184Z,49.90
2022-11-07T09:35:14.974Z,50.11
2022-11-07T09:37:41.899Z,50.13
2022-11-07T09:40:44.592Z,48.41
2022-11-07T09:43:43.826Z,47.94
2022-11-07T09:46:26.217Z,47.86
2022-11-07T09:48:59.272Z,47.58
2022-11-07T09:51:36.233Z,47.52
2022-11-07T09:54:18.432Z,46.29
2022-11-07T09:56:45.198Z,46.92
2022-11-07T09:59:25.759Z,46.73
2022-11-07T10:01:52.390Z,46.79
2022-11-07T10:04:25.214Z,46.66
2022-11-07T10:07:04.087Z,46.31
2022-11-07T10:09:45.682Z,45.98
2022-11-07T10:12:44.556Z,45.80
2022-11-07T10:15:25.272Z,45.05
2022-11-07T10:18:26.182Z,44.17
2022-11-07T10:21:37.135Z,43.34
2022-11-07T10:24:20.964Z,43.22
2022-11-07T10:26:47.429Z,43.37
2022-11-07T10:29:19.556Z,43.30
2022-11-07T10:31:57.645Z,43.50
2022-11-07T10:34:43.682Z,43.12
2022-11-07T10:37:10.156Z,43.19
2022-11-07T10:39:36.608Z,43.27
2022-11-07T10:42:13.924Z,44.31
2022-11-07T10:44:42.571Z,43.91
2022-11-07T10:47:23.377Z,44.53
2022-11-07T10:50:21.486Z,44.68
2022-11-07T10:52:57.657Z,44.80
2022-11-07T10:55:25.504Z,44.68
2022-11-07T10:58:04.365Z,44.60
2022-11-07T11:00:37.643Z,45.27
2022-11-07T11:03:17.038Z,46.61
2022-11-07T11:05:45.307Z,46.03
2022-11-07T11:08:23.041Z,46.13
2022-11-07T11:10:50.311Z,45.04
2022-11-07T11:13:31.865Z,44.89
2022-11-07T11:16:15.314Z,43.29
2022-11-07T11:18:54.693Z,43.58
2022-11-07T11:21:22.414Z,42.52
2022-11-07T11:23:49.468Z,42.21
2022-11-07T11:26:26.170Z,42.68
2022-11-07T11:29:01.726Z,41.96
2022-11-07T11:31:39.250Z,42.04
2022-11-07T11:34:25.693Z,41.96
2022-11-07T11:37:14.437Z,42.23
2022-11-07T11:39:47.318Z,40.98
2022-11-07T11:42:39.948Z,41.80
2022-11-07T11:45:17.504Z,41.93
2022-11-07T11:48:31.816Z,41.66
2022-11-07T11:51:07.501Z,41.97
2022-11-07T11:53:33.992Z,42.01
2022-11-07T11:56:06.301Z,41.88
2022-11-07T11:58:42.328Z,41.71
2022-11-07T12:01:29.122Z,41.88
2022-11-07T12:04:08.377Z,42.89
2022-11-07T12:06:45.857Z,42.08
2022-11-07T12:09:22.747Z,42.45
2022-11-07T12:12:09.356Z,42.74
2022-11-07T12:14:41.824Z,42.72
2022-11-07T12:17:34.628Z,41.61
2022-11-07T12:20:07.311Z,41.44
2022-11-07T12:22:49.377Z,41.56
2022-11-07T12:25:40.428Z,41.04
2022-11-07T12:28:30.145Z,40.18
2022-11-07T12:31:27.185Z,39.71
2022-11-07T12:34:02.867Z,40.31
2022-11-07T12:36:53.231Z,40.44
2022-11-07T12:39:52.542Z,39.75
2022-11-07T12:42:37.185Z,39.02
2022-11-07T12:45:30.115Z,38.60
2022-11-07T12:48:20.939Z,37.98
2022-11-07T12:51:00.428Z,37.88
2022-11-07T12:53:45.381Z,38.29
2022-11-07T12:56:19.968Z,37.65
2022-11-07T12:58:48.181Z,37.74
2022-11-07T13:01:23.970Z,36.49
2022-11-07T13:03:50.542Z,35.79
2022-11-07T13:06:51.003Z,35.72
2022-11-07T13:09:31.741Z,34.97
2022-11-07T13:12:18.007Z,34.40
2022-11-07T13:14:44.855Z,34.45
2022-11-07T13:17:23.658Z,34.68
2022-11-07T13:20:01.907Z,34.51
2022-11-07T13:22:39.507Z,34.67
2022-11-07T13:25:13.429Z,34.89
2022-11-07T13:27:45.547Z,34.90
2022-11-07T13:30:12.020Z,34.64
2022-11-07T13:32:40.540Z,34.39
2022-11-07T13:35:09.732Z,34.13
2022-11-07T13:37:42.607Z,34.08
2022-11-07T13:40:34.082Z,33.85
2022-11-07T13:43:24.053Z,33.85
2022-11-07T13:45:59.098Z,33.66
2022-11-07T13:48:42.263Z,33.78
2022-11-07T13:51:17.979Z,33.04
2022-11-07T13:53:58.055Z,32.17
2022-11-07T13:56:29.636Z,31.65
2022-11-07T13:58:57.856Z,30.95
2022-11-07T14:01:24.624Z,31.33
2022-11-07T14:03:51.459Z,30.62
2022-11-07T14:06:18.201Z,30.07
2022-11-07T14:08:47.827Z,29.84
2022-11-07T14:11:23.363Z,29.48
2022-11-07T14:13:54.597Z,29.38
2022-11-07T14:16:27.184Z,29.61
2022-11-07T14:19:01.947Z,29.56
2022-11-07T14:21:32.257Z,29.27
2022-11-07T14:24:00.634Z,29.48
2022-11-07T14:26:30.039Z,29.79
2022-11-07T14:28:57.041Z,30.41
2022-11-07T14:31:33.090Z,31.25
2022-11-07T14:34:02.788Z,30.77
2022-11-07T14:36:30.047Z,30.62
2022-11-07T14:39:04.150Z,30.01
2022-11-07T14:41:31.118Z,29.12
2022-11-07T14:44:03.512Z,28.04
2022-11-07T14:46:30.721Z,27.62
2022-11-07T14:48:57.511Z,28.02
2022-11-07T14:51:27.780Z,27.60
2022-11-07T14:54:06.690Z,27.87
2022-11-07T14:56:41.619Z,27.11
2022-11-07T14:59:19.911Z,26.62
2022-11-07T15:01:57.471Z,27.01
2022-11-07T15:04:37.310Z,26.60
2022-11-07T15:07:33.587Z,26.51
2022-11-07T15:10:14.242Z,26.24
2022-11-07T15:13:00.387Z,25.70
2022-11-07T15:15:32.315Z,25.50
2022-11-07T15:18:04.870Z,25.93
2022-11-07T15:20:33.285Z,25.74
2022-11-07T15:23:03.553Z,25.67
2022-11-07T15:25:42.752Z,25.68
2022-11-07T15:28:26.273Z,25.50
2022-11-07T15:30:57.674Z,26.06
2022-11-07T15:33:24.771Z,26.40
2022-11-07T15:35:56.543Z,26.76
2022-11-07T15:38:28.706Z,27.17
2022-11-07T15:40:55.499Z,27.08
2022-11-07T15:43:22.297Z,28.08
2022-11-07T15:45:51.561Z,28.41
2022-11-07T15:48:22.815Z,28.94
2022-11-07T15:50:49.757Z,29.68
2022-11-07T15:53:21.878Z,30.80
2022-11-07T15:55:52.964Z,32.13
2022-11-07T15:58:23.357Z,33.09
2022-11-07T16:00:51.065Z,34.62
2022-11-07T16:03:19.875Z,35.43
2022-11-07T16:05:49.903Z,36.44
2022-11-07T16:08:21.069Z,37.97
2022-11-07T16:11:02.045Z,38.65
2022-11-07T16:13:29.088Z,39.24
2022-11-07T16:16:01.958Z,39.71
2022-11-07T16:18:36.465Z,40.69
2022-11-07T16:21:03.299Z,41.66
2022-11-07T16:23:29.848Z,42.07
2022-11-07T16:25:56.366Z,42.90
2022-11-07T16:28:22.801Z,44.03
2022-11-07T16:30:50.039Z,44.35
2022-11-07T16:33:16.862Z,45.05
2022-11-07T16:35:43.578Z,45.69
2022-11-07T16:38:14.478Z,45.97
2022-11-07T16:40:41.870Z,45.98
2022-11-07T16:43:08.531Z,47.26
2022-11-07T16:45:37.093Z,46.67
2022-11-07T16:48:17.783Z,47.37
2022-11-07T16:50:44.483Z,47.58
2022-11-07T16:53:12.528Z,47.32
2022-11-07T16:55:42.226Z,48.66
2022-11-07T16:58:24.467Z,48.52
2022-11-07T17:00:52.196Z,49.04
2022-11-07T17:03:18.959Z,49.64
2022-11-07T17:05:46.571Z,49.51
2022-11-07T17:08:23.023Z,49.77
2022-11-07T17:10:49.807Z,49.87
2022-11-07T17:13:16.304Z,51.13
2022-11-07T17:15:44.164Z,51.10
2022-11-07T17:18:21.846Z,50.94
2022-11-07T17:20:51.873Z,51.72
2022-11-07T17:23:19.328Z,50.90
2022-11-07T17:25:54.033Z,51.52
2022-11-07T17:28:21.312Z,52.14
2022-11-07T17:30:48.492Z,52.06
2022-11-07T17:33:15.029Z,52.06
2022-11-07T17:35:41.807Z,52.12
2022-11-07T17:38:14.818Z,52.43
2022-11-07T17:40:41.678Z,52.91
2022-11-07T17:43:08.271Z,52.78
2022-11-07T17:45:34.978Z,52.32
2022-11-07T17:48:01.524Z,52.90
2022-11-07T17:50:28.029Z,52.46
2022-11-07T17:52:54.530Z,53.08
2022-11-07T17:55:21.215Z,53.07
2022-11-07T17:57:47.820Z,53.32
2022-11-07T18:00:17.711Z,53.52
2022-11-07T18:02:45.799Z,53.63
2022-11-07T18:05:17.416Z,53.97
2022-11-07T18:07:44.660Z,54.75
2022-11-07T18:10:13.424Z,54.37
2022-11-07T18:12:39.908Z,55.29
2022-11-07T18:15:07.026Z,54.81
2022-11-07T18:17:34.327Z,54.85
2022-11-07T18:20:01.705Z,55.22
2022-11-07T18:22:28.224Z,54.94
2022-11-07T18:24:54.743Z,55.41
2022-11-07T18:27:21.253Z,55.60
2022-11-07T18:29:48.826Z,56.01
2022-11-07T18:32:15.384Z,55.68
2022-11-07T18:34:41.994Z,56.02
2022-11-07T18:37:08.506Z,56.65
2022-11-07T18:39:35.107Z,56.35
2022-11-07T18:42:01.606Z,56.17
2022-11-07T18:44:28.120Z,56.29
2022-11-07T18:46:54.621Z,57.06
2022-11-07T18:49:21.096Z,56.34
2022-11-07T18:51:47.550Z,56.83
2022-11-07T18:54:14.290Z,56.65
2022-11-07T18:56:42.570Z,57.13
2022-11-07T18:59:09.753Z,57.01
2022-11-07T19:01:36.923Z,56.71
2022-11-07T19:04:04.434Z,57.10
2022-11-07T19:06:31.994Z,57.10
2022-11-07T19:08:58.634Z,57.59
2022-11-07T19:11:28.217Z,57.13
2022-11-07T19:13:58.933Z,57.11
2022-11-07T19:16:25.452Z,56.71
2022-11-07T19:18:52.447Z,56.91
2022-11-07T19:21:20.795Z,57.44
2022-11-07T19:23:48.462Z,57.33
2022-11-07T19:26:16.353Z,56.96
2022-11-07T19:28:42.876Z,57.68
2022-11-07T19:31:11.972Z,57.85
2022-11-07T19:33:40.119Z,58.20
2022-11-07T19:36:11.618Z,57.40
2022-11-07T19:38:38.086Z,57.15
2022-11-07T19:41:06.611Z,57.13
2022-11-07T19:43:34.583Z,57.58
2022-11-07T19:46:06.984Z,57.53
2022-11-07T19:48:33.497Z,57.68
2022-11-07T19:51:03.608Z,57.95
2022-11-07T19:53:30.119Z,58.36
2022-11-07T19:55:56.707Z,57.61
2022-11-07T19:58:23.284Z,57.74
2022-11-07T20:00:49.816Z,57.79
2022-11-07T20:03:16.980Z,57.19
2022-11-07T20:05:43.784Z,57.32
2022-11-07T20:08:10.294Z,57.78
2022-11-07T20:10:36.764Z,57.78
2022-11-07T20:13:03.262Z,57.76
2022-11-07T20:15:29.876Z,57.51
2022-11-07T20:17:56.349Z,57.20
2022-11-07T20:20:22.924Z,56.95
2022-11-07T20:22:49.427Z,56.61
2022-11-07T20:25:16.098Z,57.59
2022-11-07T20:27:42.793Z,57.09
2022-11-07T20:30:10.160Z,56.90
2022-11-07T20:32:36.824Z,57.17
2022-11-07T20:35:03.668Z,56.94
2022-11-07T20:37:30.160Z,57.36
2022-11-07T20:39:56.637Z,56.93
2022-11-07T20:42:23.123Z,56.84
2022-11-07T20:44:50.491Z,56.61
2022-11-07T20:47:17.246Z,57.31
2022-11-07T20:49:43.967Z,57.05
2022-11-07T20:52:10.586Z,56.19
2022-11-07T20:54:39.041Z,56.55
2022-11-07T20:57:05.801Z,56.85
2022-11-07T20:59:32.465Z,57.04
2022-11-07T21:02:03.259Z,56.58
2022-11-07T21:04:36.257Z,56.58
2022-11-07T21:07:10.861Z,56.58
2022-11-07T21:09:37.453Z,56.46
2022-11-07T21:12:03.959Z,56.04
2022-11-07T21:14:30.527Z,56.28
2022-11-07T21:16:57.032Z,56.81
2022-11-07T21:19:23.502Z,56.64
2022-11-07T21:21:50.040Z,56.21
2022-11-07T21:24:16.569Z,56.20
2022-11-07T21:26:43.241Z,55.83
2022-11-07T21:29:10.195Z,55.91
2022-11-07T21:31:39.751Z,55.86
2022-11-07T21:34:07.733Z,55.81
2022-11-07T21:36:34.234Z,56.14
2022-11-07T21:39:01.616Z,55.94
2022-11-07T21:41:30.144Z,56.51
2022-11-07T21:43:57.791Z,55.28
2022-11-07T21:46:27.969Z,55.39
2022-11-07T21:48:55.612Z,55.75
2022-11-07T21:51:25.885Z,55.24
2022-11-07T21:53:52.756Z,55.92
2022-11-07T21:56:23.917Z,55.79
2022-11-07T21:58:57.187Z,55.81
2022-11-07T22:01:24.519Z,55.15
2022-11-07T22:04:06.079Z,55.51
2022-11-07T22:06:39.776Z,55.71
2022-11-07T22:09:07.830Z,54.96
2022-11-07T22:11:34.629Z,55.51
2022-11-07T22:14:01.110Z,55.11
2022-11-07T22:16:27.788Z,55.42
2022-11-07T22:18:54.429Z,55.33
2022-11-07T22:21:23.146Z,55.05
2022-11-07T22:23:50.890Z,55.22
2022-11-07T22:26:23.247Z,55.10
2022-11-07T22:28:50.343Z,55.30
2022-11-07T22:31:19.799Z,55.80
2022-11-07T22:33:47.283Z,55.72
2022-11-07T22:36:13.968Z,54.84
2022-11-07T22:38:41.122Z,55.68
2022-11-07T22:41:10.245Z,56.17
2022-11-07T22:43:37.241Z,56.47
2022-11-07T22:46:06.329Z,56.65
2022-11-07T22:48:33.301Z,56.91
2022-11-07T22:51:11.201Z,56.55
2022-11-07T22:53:37.691Z,56.19
2022-11-07T22:56:22.777Z,56.75
2022-11-07T22:58:49.401Z,56.64
2022-11-07T23:01:19.041Z,57.01
2022-11-07T23:03:46.090Z,56.30
2022-11-07T23:06:12.920Z,56.60
2022-11-07T23:08:39.394Z,56.40
2022-11-07T23:11:44.893Z,56.05
2022-11-07T23:14:03.824Z,56.42
2022-11-07T23:16:32.964Z,57.13
2022-11-07T23:19:02.248Z,56.75
2022-11-07T23:21:29.198Z,56.99
2022-11-07T23:23:58.309Z,56.68
2022-11-07T23:26:26.435Z,56.69
2022-11-07T23:28:53.024Z,56.89
2022-11-07T23:31:19.510Z,56.47
2022-11-07T23:33:45.976Z,56.68
2022-11-07T23:36:15.487Z,57.14
2022-11-07T23:38:43.020Z,56.55
2022-11-07T23:41:12.903Z,57.23
2022-11-07T23:43:39.649Z,56.93
2022-11-07T23:46:06.755Z,56.81
2022-11-07T23:48:33.340Z,56.71
2022-11-07T23:51:01.229Z,56.71
2022-11-07T23:53:30.457Z,56.31
2022-11-07T23:55:56.939Z,56.42
2022-11-07T23:58:23.417Z,56.63
